sensor_id;sensor_type;location;lat;lon;timestamp;pressure;altitude;pressure_sealevel;temperature;humidity
10668;BME280;5382;42.136;24.796;2022-08-21T00:00:23;99188.97;;;21.83;100.00
10668;BME280;5382;42.136;24.796;2022-08-21T00:02:53;99190.03;;;21.88;100.00
10668;BME280;5382;42.136;24.796;2022-08-21T00:05:20;99203.53;;;21.95;100.00
10668;BME280;5382;42.136;24.796;2022-08-21T00:07:48;99222.59;;;21.52;100.00
10668;BME280;5382;42.136;24.796;2022-08-21T00:10:15;99221.41;;;21.33;100.00
10668;BME280;5382;42.136;24.796;2022-08-21T00:12:44;99197.19;;;21.05;100.00
10668;BME280;5382;42.136;24.796;2022-08-21T00:15:15;99213.03;;;21.21;100.00
10668;BME280;5382;42.136;24.796;2022-08-21T00:17:43;99207.06;;;21.26;100.00
10668;BME280;5382;42.136;24.796;2022-08-21T00:20:12;99200.69;;;21.33;100.00
10668;BME280;5382;42.136;24.796;2022-08-21T00:22:40;99201.88;;;21.52;100.00
10668;BME280;5382;42.136;24.796;2022-08-21T00:25:08;99171.59;;;21.44;100.00
10668;BME280;5382;42.136;24.796;2022-08-21T00:27:36;99194.25;;;21.63;100.00
10668;BME280;5382;42.136;24.796;2022-08-21T00:30:06;99192.25;;;21.71;100.00
10668;BME280;5382;42.136;24.796;2022-08-21T00:32:34;99194.38;;;21.83;100.00
10668;BME280;5382;42.136;24.796;2022-08-21T00:37:29;99192.53;;;21.90;100.00
10668;BME280;5382;42.136;24.796;2022-08-21T00:39:56;99196.47;;;21.87;100.00
10668;BME280;5382;42.136;24.796;2022-08-21T00:42:23;99200.03;;;21.94;100.00
10668;BME280;5382;42.136;24.796;2022-08-21T00:44:50;99193.38;;;21.90;100.00
10668;BME280;5382;42.136;24.796;2022-08-21T00:47:19;99175.31;;;21.84;100.00
10668;BME280;5382;42.136;24.796;2022-08-21T00:49:46;99163.09;;;21.88;100.00
10668;BME280;5382;42.136;24.796;2022-08-21T00:52:15;99149.06;;;21.99;100.00
10668;BME280;5382;42.136;24.796;2022-08-21T00:54:44;99173.31;;;21.99;100.00
10668;BME280;5382;42.136;24.796;2022-08-21T00:57:15;99176.63;;;21.53;100.00
10668;BME280;5382;42.136;24.796;2022-08-21T00:59:46;99194.44;;;21.26;100.00
10668;BME280;5382;42.136;24.796;2022-08-21T01:02:16;99184.22;;;21.15;100.00
10668;BME280;5382;42.136;24.796;2022-08-21T01:04:44;99172.91;;;20.98;100.00
10668;BME280;5382;42.136;24.796;2022-08-21T01:07:11;99177.53;;;21.04;100.00
10668;BME280;5382;42.136;24.796;2022-08-21T01:09:39;99169.66;;;21.03;100.00
10668;BME280;5382;42.136;24.796;2022-08-21T01:12:07;99175.75;;;21.18;100.00
10668;BME280;5382;42.136;24.796;2022-08-21T01:14:35;99163.53;;;21.16;100.00
10668;BME280;5382;42.136;24.796;2022-08-21T01:17:02;99156.59;;;21.00;100.00
10668;BME280;5382;42.136;24.796;2022-08-21T01:19:30;99149.00;;;21.10;100.00
10668;BME280;5382;42.136;24.796;2022-08-21T01:21:59;99141.44;;;21.27;100.00
10668;BME280;5382;42.136;24.796;2022-08-21T01:24:26;99123.47;;;21.34;100.00
10668;BME280;5382;42.136;24.796;2022-08-21T01:26:55;99114.31;;;21.22;100.00
10668;BME280;5382;42.136;24.796;2022-08-21T01:29:34;99119.56;;;21.37;100.00
10668;BME280;5382;42.136;24.796;2022-08-21T01:32:05;99131.66;;;21.47;100.00
10668;BME280;5382;42.136;24.796;2022-08-21T01:34:34;99129.81;;;21.54;100.00
10668;BME280;5382;42.136;24.796;2022-08-21T01:37:04;99109.75;;;21.57;100.00
10668;BME280;5382;42.136;24.796;2022-08-21T01:39:31;99107.88;;;21.58;100.00
10668;BME280;5382;42.136;24.796;2022-08-21T01:41:57;99101.44;;;21.45;100.00
10668;BME280;5382;42.136;24.796;2022-08-21T01:44:25;99122.84;;;21.67;100.00
10668;BME280;5382;42.136;24.796;2022-08-21T01:46:52;99136.94;;;21.69;100.00
10668;BME280;5382;42.136;24.796;2022-08-21T01:49:20;99127.56;;;21.58;100.00
10668;BME280;5382;42.136;24.796;2022-08-21T01:51:47;99156.03;;;21.74;100.00
10668;BME280;5382;42.136;24.796;2022-08-21T01:54:16;99166.16;;;21.72;100.00
10668;BME280;5382;42.136;24.796;2022-08-21T01:56:46;99176.75;;;21.80;100.00
10668;BME280;5382;42.136;24.796;2022-08-21T01:59:14;99193.88;;;21.66;100.00
10668;BME280;5382;42.136;24.796;2022-08-21T02:01:41;99192.53;;;21.48;100.00
10668;BME280;5382;42.136;24.796;2022-08-21T02:04:09;99210.91;;;21.38;100.00
10668;BME280;5382;42.136;24.796;2022-08-21T02:06:37;99223.06;;;21.34;100.00
10668;BME280;5382;42.136;24.796;2022-08-21T02:09:05;99225.25;;;21.45;100.00
10668;BME280;5382;42.136;24.796;2022-08-21T02:11:35;99219.69;;;21.53;100.00
10668;BME280;5382;42.136;24.796;2022-08-21T02:14:05;99229.66;;;21.60;100.00
10668;BME280;5382;42.136;24.796;2022-08-21T02:16:32;99217.09;;;21.67;100.00
10668;BME280;5382;42.136;24.796;2022-08-21T02:18:59;99217.09;;;21.73;100.00
10668;BME280;5382;42.136;24.796;2022-08-21T02:21:27;99209.88;;;21.74;100.00
10668;BME280;5382;42.136;24.796;2022-08-21T02:23:53;99181.22;;;21.60;100.00
10668;BME280;5382;42.136;24.796;2022-08-21T02:26:20;99202.84;;;21.80;100.00
10668;BME280;5382;42.136;24.796;2022-08-21T02:28:48;99209.72;;;21.82;100.00
10668;BME280;5382;42.136;24.796;2022-08-21T02:31:15;99227.28;;;21.78;100.00
10668;BME280;5382;42.136;24.796;2022-08-21T02:33:42;99240.81;;;21.91;100.00
10668;BME280;5382;42.136;24.796;2022-08-21T02:36:11;99248.28;;;21.89;100.00
10668;BME280;5382;42.136;24.796;2022-08-21T02:38:40;99250.75;;;21.84;100.00
10668;BME280;5382;42.136;24.796;2022-08-21T02:41:10;99242.25;;;21.87;100.00
10668;BME280;5382;42.136;24.796;2022-08-21T02:43:38;99242.09;;;21.95;100.00
10668;BME280;5382;42.136;24.796;2022-08-21T02:46:07;99246.19;;;21.91;100.00
10668;BME280;5382;42.136;24.796;2022-08-21T02:48:35;99239.56;;;21.87;100.00
10668;BME280;5382;42.136;24.796;2022-08-21T02:51:05;99242.91;;;21.89;100.00
10668;BME280;5382;42.136;24.796;2022-08-21T02:53:33;99244.72;;;21.89;100.00
10668;BME280;5382;42.136;24.796;2022-08-21T02:56:03;99243.13;;;21.94;100.00
10668;BME280;5382;42.136;24.796;2022-08-21T02:58:33;99238.78;;;22.00;100.00
10668;BME280;5382;42.136;24.796;2022-08-21T03:01:01;99232.59;;;21.99;100.00
10668;BME280;5382;42.136;24.796;2022-08-21T03:03:29;99227.03;;;21.73;100.00
10668;BME280;5382;42.136;24.796;2022-08-21T03:05:56;99234.94;;;21.81;100.00
10668;BME280;5382;42.136;24.796;2022-08-21T03:08:23;99238.75;;;21.87;100.00
10668;BME280;5382;42.136;24.796;2022-08-21T03:10:52;99235.81;;;21.88;100.00
10668;BME280;5382;42.136;24.796;2022-08-21T03:13:20;99240.38;;;21.88;100.00
10668;BME280;5382;42.136;24.796;2022-08-21T03:15:48;99248.69;;;21.93;100.00
10668;BME280;5382;42.136;24.796;2022-08-21T03:18:17;99238.75;;;21.93;100.00
10668;BME280;5382;42.136;24.796;2022-08-21T03:20:45;99246.06;;;21.99;100.00
10668;BME280;5382;42.136;24.796;2022-08-21T03:23:13;99247.34;;;22.17;100.00
10668;BME280;5382;42.136;24.796;2022-08-21T03:25:40;99252.16;;;22.21;100.00
10668;BME280;5382;42.136;24.796;2022-08-21T03:28:09;99252.22;;;22.28;100.00
10668;BME280;5382;42.136;24.796;2022-08-21T03:30:37;99245.97;;;22.21;100.00
10668;BME280;5382;42.136;24.796;2022-08-21T03:33:03;99242.63;;;22.19;100.00
10668;BME280;5382;42.136;24.796;2022-08-21T03:35:30;99251.53;;;22.19;100.00
10668;BME280;5382;42.136;24.796;2022-08-21T03:37:59;99249.22;;;22.16;100.00
10668;BME280;5382;42.136;24.796;2022-08-21T03:40:26;99242.22;;;22.22;100.00
10668;BME280;5382;42.136;24.796;2022-08-21T03:42:53;99245.97;;;22.28;100.00
10668;BME280;5382;42.136;24.796;2022-08-21T03:45:20;99257.38;;;22.23;100.00
10668;BME280;5382;42.136;24.796;2022-08-21T03:47:52;99253.41;;;22.19;100.00
10668;BME280;5382;42.136;24.796;2022-08-21T03:50:19;99249.28;;;22.30;100.00
10668;BME280;5382;42.136;24.796;2022-08-21T03:52:46;99258.59;;;22.20;100.00
10668;BME280;5382;42.136;24.796;2022-08-21T03:55:14;99262.03;;;22.08;100.00
10668;BME280;5382;42.136;24.796;2022-08-21T03:57:41;99260.34;;;22.00;100.00
10668;BME280;5382;42.136;24.796;2022-08-21T04:00:13;99258.47;;;22.00;100.00
10668;BME280;5382;42.136;24.796;2022-08-21T04:02:41;99267.72;;;21.85;100.00
10668;BME280;5382;42.136;24.796;2022-08-21T04:05:09;99255.59;;;21.67;100.00
10668;BME280;5382;42.136;24.796;2022-08-21T04:07:36;99272.09;;;21.58;100.00
10668;BME280;5382;42.136;24.796;2022-08-21T04:10:05;99264.47;;;21.33;100.00
10668;BME280;5382;42.136;24.796;2022-08-21T04:12:34;99264.88;;;21.37;100.00
10668;BME280;5382;42.136;24.796;2022-08-21T04:15:01;99244.41;;;21.35;100.00
10668;BME280;5382;42.136;24.796;2022-08-21T04:17:28;99255.81;;;21.38;100.00
10668;BME280;5382;42.136;24.796;2022-08-21T04:19:54;99244.69;;;21.47;100.00
10668;BME280;5382;42.136;24.796;2022-08-21T04:22:21;99260.69;;;21.55;100.00
10668;BME280;5382;42.136;24.796;2022-08-21T04:24:48;99225.09;;;21.32;100.00
10668;BME280;5382;42.136;24.796;2022-08-21T04:27:15;99257.09;;;21.42;100.00
10668;BME280;5382;42.136;24.796;2022-08-21T04:29:44;99258.84;;;21.56;100.00
10668;BME280;5382;42.136;24.796;2022-08-21T04:32:11;99257.88;;;21.64;100.00
10668;BME280;5382;42.136;24.796;2022-08-21T04:34:37;99261.56;;;21.63;100.00
10668;BME280;5382;42.136;24.796;2022-08-21T04:37:04;99273.00;;;21.65;100.00
10668;BME280;5382;42.136;24.796;2022-08-21T04:39:31;99258.47;;;21.66;100.00
10668;BME280;5382;42.136;24.796;2022-08-21T04:41:58;99256.66;;;21.66;100.00
10668;BME280;5382;42.136;24.796;2022-08-21T04:44:25;99248.75;;;21.65;100.00
10668;BME280;5382;42.136;24.796;2022-08-21T04:46:53;99231.19;;;21.75;100.00
10668;BME280;5382;42.136;24.796;2022-08-21T04:49:20;99241.75;;;21.70;100.00
10668;BME280;5382;42.136;24.796;2022-08-21T04:51:47;99245.25;;;21.71;100.00
10668;BME280;5382;42.136;24.796;2022-08-21T04:54:17;99238.56;;;21.53;100.00
10668;BME280;5382;42.136;24.796;2022-08-21T04:56:47;99227.63;;;21.62;100.00
10668;BME280;5382;42.136;24.796;2022-08-21T04:59:18;99228.72;;;21.74;100.00
10668;BME280;5382;42.136;24.796;2022-08-21T05:01:47;99232.47;;;21.80;100.00
10668;BME280;5382;42.136;24.796;2022-08-21T05:04:20;99238.69;;;21.80;100.00
10668;BME280;5382;42.136;24.796;2022-08-21T05:06:49;99239.97;;;21.91;100.00
10668;BME280;5382;42.136;24.796;2022-08-21T05:09:18;99238.09;;;21.85;100.00
10668;BME280;5382;42.136;24.796;2022-08-21T05:11:46;99237.97;;;21.99;100.00
10668;BME280;5382;42.136;24.796;2022-08-21T05:14:14;99236.09;;;22.00;100.00
10668;BME280;5382;42.136;24.796;2022-08-21T05:16:41;99238.38;;;22.03;100.00
10668;BME280;5382;42.136;24.796;2022-08-21T05:19:09;99215.34;;;21.94;100.00
10668;BME280;5382;42.136;24.796;2022-08-21T05:21:41;99224.06;;;21.96;100.00
10668;BME280;5382;42.136;24.796;2022-08-21T05:24:08;99214.31;;;22.02;100.00
10668;BME280;5382;42.136;24.796;2022-08-21T05:26:35;99206.09;;;22.10;100.00
10668;BME280;5382;42.136;24.796;2022-08-21T05:29:02;99207.94;;;22.09;100.00
10668;BME280;5382;42.136;24.796;2022-08-21T05:31:29;99212.53;;;22.15;100.00
10668;BME280;5382;42.136;24.796;2022-08-21T05:33:56;99219.41;;;22.25;100.00
10668;BME280;5382;42.136;24.796;2022-08-21T05:36:24;99214.25;;;22.23;100.00
10668;BME280;5382;42.136;24.796;2022-08-21T05:38:52;99224.41;;;22.21;100.00
10668;BME280;5382;42.136;24.796;2022-08-21T05:41:19;99222.03;;;22.05;100.00
10668;BME280;5382;42.136;24.796;2022-08-21T05:43:46;99215.19;;;22.02;100.00
10668;BME280;5382;42.136;24.796;2022-08-21T05:46:13;99221.63;;;22.14;100.00
10668;BME280;5382;42.136;24.796;2022-08-21T05:48:41;99233.94;;;22.24;100.00
10668;BME280;5382;42.136;24.796;2022-08-21T05:51:10;99243.06;;;22.29;100.00
10668;BME280;5382;42.136;24.796;2022-08-21T05:53:38;99238.88;;;22.20;100.00
10668;BME280;5382;42.136;24.796;2022-08-21T05:56:09;99224.41;;;22.21;100.00
10668;BME280;5382;42.136;24.796;2022-08-21T05:58:36;99244.72;;;22.30;100.00
10668;BME280;5382;42.136;24.796;2022-08-21T06:01:04;99239.34;;;22.30;100.00
10668;BME280;5382;42.136;24.796;2022-08-21T06:03:33;99233.34;;;22.28;100.00
10668;BME280;5382;42.136;24.796;2022-08-21T06:06:01;99257.41;;;22.43;100.00
10668;BME280;5382;42.136;24.796;2022-08-21T06:08:28;99252.47;;;22.53;100.00
10668;BME280;5382;42.136;24.796;2022-08-21T06:10:57;99258.91;;;22.52;100.00
10668;BME280;5382;42.136;24.796;2022-08-21T06:13:26;99244.78;;;22.43;100.00
10668;BME280;5382;42.136;24.796;2022-08-21T06:16:02;99254.13;;;22.48;100.00
10668;BME280;5382;42.136;24.796;2022-08-21T06:18:29;99251.22;;;22.56;100.00
10668;BME280;5382;42.136;24.796;2022-08-21T06:20:57;99248.94;;;22.46;100.00
10668;BME280;5382;42.136;24.796;2022-08-21T06:23:23;99249.81;;;22.12;100.00
10668;BME280;5382;42.136;24.796;2022-08-21T06:25:50;99256.97;;;21.91;100.00
10668;BME280;5382;42.136;24.796;2022-08-21T06:28:17;99251.59;;;21.91;100.00
10668;BME280;5382;42.136;24.796;2022-08-21T06:30:45;99248.50;;;21.94;100.00
10668;BME280;5382;42.136;24.796;2022-08-21T06:33:12;99252.44;;;21.98;100.00
10668;BME280;5382;42.136;24.796;2022-08-21T06:35:39;99242.91;;;21.96;100.00
10668;BME280;5382;42.136;24.796;2022-08-21T06:38:06;99241.31;;;22.08;100.00
10668;BME280;5382;42.136;24.796;2022-08-21T06:40:33;99220.13;;;21.98;100.00
10668;BME280;5382;42.136;24.796;2022-08-21T06:43:05;99250.97;;;22.31;100.00
10668;BME280;5382;42.136;24.796;2022-08-21T06:45:32;99245.81;;;22.42;100.00
10668;BME280;5382;42.136;24.796;2022-08-21T06:48:01;99233.81;;;22.58;100.00
10668;BME280;5382;42.136;24.796;2022-08-21T06:50:28;99241.53;;;22.75;100.00
10668;BME280;5382;42.136;24.796;2022-08-21T06:52:59;99230.72;;;22.81;100.00
10668;BME280;5382;42.136;24.796;2022-08-21T06:55:27;99239.50;;;22.97;100.00
10668;BME280;5382;42.136;24.796;2022-08-21T06:57:54;99235.56;;;22.99;100.00
10668;BME280;5382;42.136;24.796;2022-08-21T07:00:23;99235.78;;;23.11;100.00
10668;BME280;5382;42.136;24.796;2022-08-21T07:02:50;99232.47;;;23.16;100.00
10668;BME280;5382;42.136;24.796;2022-08-21T07:05:19;99226.00;;;23.17;100.00
10668;BME280;5382;42.136;24.796;2022-08-21T07:07:46;99224.13;;;23.24;100.00
10668;BME280;5382;42.136;24.796;2022-08-21T07:10:14;99221.47;;;23.11;100.00
10668;BME280;5382;42.136;24.796;2022-08-21T07:12:41;99224.56;;;23.21;100.00
10668;BME280;5382;42.136;24.796;2022-08-21T07:15:09;99222.25;;;23.31;100.00
10668;BME280;5382;42.136;24.796;2022-08-21T07:17:36;99222.66;;;23.48;100.00
10668;BME280;5382;42.136;24.796;2022-08-21T07:20:04;99226.59;;;23.52;100.00
10668;BME280;5382;42.136;24.796;2022-08-21T07:22:33;99224.50;;;23.54;100.00
10668;BME280;5382;42.136;24.796;2022-08-21T07:25:02;99229.28;;;23.52;100.00
10668;BME280;5382;42.136;24.796;2022-08-21T07:27:29;99235.09;;;23.56;100.00
10668;BME280;5382;42.136;24.796;2022-08-21T07:29:57;99221.59;;;23.56;100.00
10668;BME280;5382;42.136;24.796;2022-08-21T07:32:24;99223.03;;;23.51;100.00
10668;BME280;5382;42.136;24.796;2022-08-21T07:34:51;99219.09;;;23.61;100.00
10668;BME280;5382;42.136;24.796;2022-08-21T07:37:18;99215.75;;;23.59;100.00
10668;BME280;5382;42.136;24.796;2022-08-21T07:39:46;99219.06;;;23.74;100.00
10668;BME280;5382;42.136;24.796;2022-08-21T07:42:14;99215.56;;;23.73;100.00
10668;BME280;5382;42.136;24.796;2022-08-21T07:44:41;99210.91;;;23.87;100.00
10668;BME280;5382;42.136;24.796;2022-08-21T07:47:08;99216.09;;;23.95;100.00
10668;BME280;5382;42.136;24.796;2022-08-21T07:49:35;99208.41;;;23.92;100.00
10668;BME280;5382;42.136;24.796;2022-08-21T07:52:02;99215.81;;;24.10;100.00
10668;BME280;5382;42.136;24.796;2022-08-21T07:54:29;99210.03;;;24.00;100.00
10668;BME280;5382;42.136;24.796;2022-08-21T07:56:57;99210.22;;;24.05;100.00
10668;BME280;5382;42.136;24.796;2022-08-21T07:59:24;99226.19;;;24.13;100.00
10668;BME280;5382;42.136;24.796;2022-08-21T08:01:51;99211.72;;;24.01;100.00
10668;BME280;5382;42.136;24.796;2022-08-21T08:04:19;99223.38;;;23.95;100.00
10668;BME280;5382;42.136;24.796;2022-08-21T08:06:45;99218.66;;;23.77;100.00
10668;BME280;5382;42.136;24.796;2022-08-21T08:09:12;99227.78;;;23.69;100.00
10668;BME280;5382;42.136;24.796;2022-08-21T08:11:43;99214.75;;;23.60;100.00
10668;BME280;5382;42.136;24.796;2022-08-21T08:14:12;99218.25;;;23.73;100.00
10668;BME280;5382;42.136;24.796;2022-08-21T08:16:38;99207.00;;;23.77;100.00
10668;BME280;5382;42.136;24.796;2022-08-21T08:19:05;99203.69;;;23.81;100.00
10668;BME280;5382;42.136;24.796;2022-08-21T08:21:32;99192.69;;;23.76;100.00
10668;BME280;5382;42.136;24.796;2022-08-21T08:23:59;99195.78;;;23.80;100.00
10668;BME280;5382;42.136;24.796;2022-08-21T08:26:27;99206.78;;;23.85;100.00
10668;BME280;5382;42.136;24.796;2022-08-21T08:28:53;99219.06;;;23.81;100.00
10668;BME280;5382;42.136;24.796;2022-08-21T08:31:22;99215.31;;;23.68;100.00
10668;BME280;5382;42.136;24.796;2022-08-21T08:33:49;99199.97;;;23.62;100.00
10668;BME280;5382;42.136;24.796;2022-08-21T08:36:17;99199.53;;;23.72;100.00
10668;BME280;5382;42.136;24.796;2022-08-21T08:38:44;99189.75;;;23.71;100.00
10668;BME280;5382;42.136;24.796;2022-08-21T08:41:13;99182.72;;;23.63;100.00
10668;BME280;5382;42.136;24.796;2022-08-21T08:43:49;99201.88;;;23.55;100.00
10668;BME280;5382;42.136;24.796;2022-08-21T08:46:20;99185.19;;;23.71;100.00
10668;BME280;5382;42.136;24.796;2022-08-21T08:48:53;99192.47;;;23.78;100.00
10668;BME280;5382;42.136;24.796;2022-08-21T08:51:25;99187.66;;;23.80;100.00
10668;BME280;5382;42.136;24.796;2022-08-21T08:53:59;99150.94;;;23.65;100.00
10668;BME280;5382;42.136;24.796;2022-08-21T08:56:30;99185.38;;;23.83;100.00
10668;BME280;5382;42.136;24.796;2022-08-21T08:59:02;99174.22;;;23.73;100.00
10668;BME280;5382;42.136;24.796;2022-08-21T09:01:34;99180.00;;;23.70;100.00
10668;BME280;5382;42.136;24.796;2022-08-21T09:04:02;99161.31;;;23.68;100.00
10668;BME280;5382;42.136;24.796;2022-08-21T09:06:46;99172.91;;;23.82;100.00
10668;BME280;5382;42.136;24.796;2022-08-21T09:09:25;99181.25;;;23.81;100.00
10668;BME280;5382;42.136;24.796;2022-08-21T09:12:00;99179.81;;;23.78;100.00
10668;BME280;5382;42.136;24.796;2022-08-21T09:14:40;99177.69;;;23.87;100.00
10668;BME280;5382;42.136;24.796;2022-08-21T09:17:16;99172.53;;;23.79;100.00
10668;BME280;5382;42.136;24.796;2022-08-21T09:19:58;99173.72;;;23.89;100.00
10668;BME280;5382;42.136;24.796;2022-08-21T09:22:34;99163.28;;;23.93;100.00
10668;BME280;5382;42.136;24.796;2022-08-21T09:25:12;99172.38;;;24.05;100.00
10668;BME280;5382;42.136;24.796;2022-08-21T09:27:41;99172.72;;;24.22;100.00
10668;BME280;5382;42.136;24.796;2022-08-21T09:30:10;99164.38;;;24.24;100.00
10668;BME280;5382;42.136;24.796;2022-08-21T09:32:38;99167.22;;;24.42;100.00
10668;BME280;5382;42.136;24.796;2022-08-21T09:35:11;99165.72;;;24.46;100.00
10668;BME280;5382;42.136;24.796;2022-08-21T09:37:48;99161.72;;;24.55;100.00
10668;BME280;5382;42.136;24.796;2022-08-21T09:40:30;99164.63;;;24.54;100.00
10668;BME280;5382;42.136;24.796;2022-08-21T09:43:01;99162.66;;;24.68;100.00
10668;BME280;5382;42.136;24.796;2022-08-21T09:45:28;99151.91;;;24.86;100.00
10668;BME280;5382;42.136;24.796;2022-08-21T09:47:55;99161.69;;;24.87;100.00
10668;BME280;5382;42.136;24.796;2022-08-21T09:50:26;99153.09;;;24.90;100.00
10668;BME280;5382;42.136;24.796;2022-08-21T09:52:56;99144.03;;;24.78;100.00
10668;BME280;5382;42.136;24.796;2022-08-21T09:55:31;99151.53;;;25.01;100.00
10668;BME280;5382;42.136;24.796;2022-08-21T09:58:16;99147.69;;;25.15;100.00
10668;BME280;5382;42.136;24.796;2022-08-21T10:00:44;99145.63;;;25.17;100.00
10668;BME280;5382;42.136;24.796;2022-08-21T10:03:16;99150.88;;;25.06;100.00
10668;BME280;5382;42.136;24.796;2022-08-21T10:05:54;99151.94;;;25.05;100.00
10668;BME280;5382;42.136;24.796;2022-08-21T10:08:22;99154.34;;;24.94;100.00
10668;BME280;5382;42.136;24.796;2022-08-21T10:10:52;99153.88;;;24.72;100.00
10668;BME280;5382;42.136;24.796;2022-08-21T10:13:25;99155.91;;;24.84;100.00
10668;BME280;5382;42.136;24.796;2022-08-21T10:16:03;99155.38;;;24.93;100.00
10668;BME280;5382;42.136;24.796;2022-08-21T10:18:38;99163.06;;;24.96;100.00
10668;BME280;5382;42.136;24.796;2022-08-21T10:21:15;99162.66;;;24.93;100.00
10668;BME280;5382;42.136;24.796;2022-08-21T10:23:54;99153.56;;;24.87;100.00
10668;BME280;5382;42.136;24.796;2022-08-21T10:26:34;99160.13;;;24.98;100.00
10668;BME280;5382;42.136;24.796;2022-08-21T10:29:14;99150.06;;;25.05;100.00
10668;BME280;5382;42.136;24.796;2022-08-21T10:31:52;99154.94;;;24.96;100.00
10668;BME280;5382;42.136;24.796;2022-08-21T10:34:31;99149.94;;;24.93;100.00
10668;BME280;5382;42.136;24.796;2022-08-21T10:37:11;99155.16;;;24.95;100.00
10668;BME280;5382;42.136;24.796;2022-08-21T10:39:50;99132.91;;;24.93;100.00
10668;BME280;5382;42.136;24.796;2022-08-21T10:42:29;99152.44;;;24.95;100.00
10668;BME280;5382;42.136;24.796;2022-08-21T10:45:09;99157.66;;;24.96;100.00
10668;BME280;5382;42.136;24.796;2022-08-21T10:47:44;99148.88;;;24.76;100.00
10668;BME280;5382;42.136;24.796;2022-08-21T10:50:19;99151.50;;;24.83;100.00
10668;BME280;5382;42.136;24.796;2022-08-21T10:53:00;99157.91;;;24.88;100.00
10668;BME280;5382;42.136;24.796;2022-08-21T10:55:32;99144.91;;;24.78;100.00
10668;BME280;5382;42.136;24.796;2022-08-21T10:58:04;99158.53;;;24.90;100.00
10668;BME280;5382;42.136;24.796;2022-08-21T11:00:38;99142.06;;;24.67;100.00
10668;BME280;5382;42.136;24.796;2022-08-21T11:03:11;99150.72;;;24.75;100.00
10668;BME280;5382;42.136;24.796;2022-08-21T11:05:42;99160.97;;;24.73;100.00
10668;BME280;5382;42.136;24.796;2022-08-21T11:08:17;99160.13;;;24.48;100.00
10668;BME280;5382;42.136;24.796;2022-08-21T11:10:48;99160.56;;;24.38;100.00
10668;BME280;5382;42.136;24.796;2022-08-21T11:13:20;99168.69;;;24.31;100.00
10668;BME280;5382;42.136;24.796;2022-08-21T11:15:55;99168.59;;;24.13;100.00
10668;BME280;5382;42.136;24.796;2022-08-21T11:18:27;99163.34;;;24.25;100.00
10668;BME280;5382;42.136;24.796;2022-08-21T11:21:02;99143.91;;;24.09;100.00
10668;BME280;5382;42.136;24.796;2022-08-21T11:23:38;99146.06;;;24.26;100.00
10668;BME280;5382;42.136;24.796;2022-08-21T11:26:10;99151.84;;;24.36;100.00
10668;BME280;5382;42.136;24.796;2022-08-21T11:28:45;99146.25;;;24.31;100.00
10668;BME280;5382;42.136;24.796;2022-08-21T11:31:24;99146.66;;;24.34;100.00
10668;BME280;5382;42.136;24.796;2022-08-21T11:34:04;99140.75;;;24.44;100.00
10668;BME280;5382;42.136;24.796;2022-08-21T11:36:39;99129.66;;;24.59;100.00
10668;BME280;5382;42.136;24.796;2022-08-21T11:39:17;99150.41;;;24.90;100.00
10668;BME280;5382;42.136;24.796;2022-08-21T11:41:54;99148.31;;;24.92;100.00
10668;BME280;5382;42.136;24.796;2022-08-21T11:44:34;99137.66;;;24.97;100.00
10668;BME280;5382;42.136;24.796;2022-08-21T11:47:11;99144.81;;;25.10;100.00
10668;BME280;5382;42.136;24.796;2022-08-21T11:49:54;99132.84;;;24.99;100.00
10668;BME280;5382;42.136;24.796;2022-08-21T11:52:29;99128.03;;;25.01;100.00
10668;BME280;5382;42.136;24.796;2022-08-21T11:55:04;99129.06;;;25.00;100.00
10668;BME280;5382;42.136;24.796;2022-08-21T11:57:35;99131.03;;;25.12;100.00
10668;BME280;5382;42.136;24.796;2022-08-21T12:00:11;99127.28;;;25.13;100.00
10668;BME280;5382;42.136;24.796;2022-08-21T12:02:45;99125.63;;;25.12;100.00
10668;BME280;5382;42.136;24.796;2022-08-21T12:05:25;99114.09;;;25.23;100.00
10668;BME280;5382;42.136;24.796;2022-08-21T12:08:02;99118.34;;;25.12;100.00
10668;BME280;5382;42.136;24.796;2022-08-21T12:10:37;99124.47;;;25.26;100.00
10668;BME280;5382;42.136;24.796;2022-08-21T12:13:23;99124.53;;;25.19;100.00
10668;BME280;5382;42.136;24.796;2022-08-21T12:15:51;99083.19;;;24.87;100.00
10668;BME280;5382;42.136;24.796;2022-08-21T12:18:22;99118.16;;;24.89;100.00
10668;BME280;5382;42.136;24.796;2022-08-21T12:21:02;99108.53;;;24.68;100.00
10668;BME280;5382;42.136;24.796;2022-08-21T12:23:32;99102.38;;;24.61;100.00
10668;BME280;5382;42.136;24.796;2022-08-21T12:26:23;99112.94;;;24.37;100.00
10668;BME280;5382;42.136;24.796;2022-08-21T12:28:50;99091.06;;;24.45;100.00
10668;BME280;5382;42.136;24.796;2022-08-21T12:31:27;99095.75;;;24.56;100.00
10668;BME280;5382;42.136;24.796;2022-08-21T12:33:58;99102.63;;;24.52;100.00
10668;BME280;5382;42.136;24.796;2022-08-21T12:36:35;99094.69;;;24.57;100.00
10668;BME280;5382;42.136;24.796;2022-08-21T12:39:12;99088.34;;;24.70;100.00
10668;BME280;5382;42.136;24.796;2022-08-21T12:41:48;99086.25;;;24.72;100.00
10668;BME280;5382;42.136;24.796;2022-08-21T12:44:22;99083.34;;;24.74;100.00
10668;BME280;5382;42.136;24.796;2022-08-21T12:46:56;99092.81;;;24.83;100.00
10668;BME280;5382;42.136;24.796;2022-08-21T12:49:27;99077.34;;;24.90;100.00
10668;BME280;5382;42.136;24.796;2022-08-21T12:52:00;99071.47;;;24.93;100.00
10668;BME280;5382;42.136;24.796;2022-08-21T12:54:30;99083.34;;;24.92;100.00
10668;BME280;5382;42.136;24.796;2022-08-21T12:57:04;99077.34;;;24.90;100.00
10668;BME280;5382;42.136;24.796;2022-08-21T12:59:36;99070.88;;;24.91;100.00
10668;BME280;5382;42.136;24.796;2022-08-21T13:02:11;99063.59;;;25.10;100.00
10668;BME280;5382;42.136;24.796;2022-08-21T13:04:43;99050.66;;;25.12;100.00
10668;BME280;5382;42.136;24.796;2022-08-21T13:07:13;99066.41;;;25.22;100.00